Flight Track Log - Related Links

Times and Time Zones

All times are in EDT time to prevent confusion due to time zone crossing. See the DAL9933 flight status page for this flight to view local times or setup timezone preferences in your user account.

Time Position Orientation Groundspeed Altitude Reporting Facility
EDT Latitude Longitude Course Direction KTS MPH feet Rate Location/Type
Thu 04:42:19 PM 29.5247 -98.4636 130° Southeast 162 186 1,900  Level Houston Center
Thu 04:43:01 PM 29.4958 -98.4239 130° Southeast 217 250 4,200 3,278 Climbing Houston Center
Thu 04:43:56 PM 29.4592 -98.3683 127° Southeast 282 325 7,200 2,948 Climbing Houston Center
Thu 04:44:57 PM 29.4317 -98.2758 109° East 325 374 9,900 1,235 Climbing Houston Center
Thu 04:46:12 PM 29.5158 -98.2033 37° Northeast 313 360 10,000 745 Climbing Houston Center
Thu 04:47:14 PM 29.5983 -98.1508 29° Northeast 317 365 11,600 1,500 Climbing Houston Center
Thu 04:48:16 PM 29.6522 -98.0592 56° Northeast 370 426 13,100 2,226 Climbing Houston Center
Thu 04:49:18 PM 29.6533 -97.9278 89° East 413 475 16,200 3,264 Climbing Houston Center
Thu 04:50:21 PM 29.6531 -97.7978 90° East 411 473 19,900 3,120 Climbing Houston Center
Thu 04:51:23 PM 29.6550 -97.6606 89° East 425 489 22,700 2,565 Climbing Houston Center
Thu 04:52:25 PM 29.6564 -97.5167 89° East 444 511 25,200 2,371 Climbing Houston Center
Thu 04:53:27 PM 29.6583 -97.3667 89° East 464 534 27,600 2,323 Climbing Houston Center
Thu 04:54:29 PM 29.6589 -97.1789 90° East 484 557 30,000 1,887 Climbing Houston Center
Thu 04:55:31 PM 29.6575 -97.0164 91° East 504 580 31,500 1,452 Climbing Houston Center
Thu 04:56:33 PM 29.6322 -96.8456 100° East 534 615 33,000 1,597 Climbing Houston Center
Thu 04:57:35 PM 29.6031 -96.6739 101° East 539 620 34,800 1,632 Climbing Houston Center
Thu 04:58:38 PM 29.5825 -96.4983 98° East 547 629 36,400 1,392 Climbing Houston Center
Thu 04:59:40 PM 29.5622 -96.3203 97° East 556 640 37,700 1,210 Climbing Houston Center
Thu 05:00:42 PM 29.5497 -96.1386 94° East 569 655 38,900 629 Climbing Houston Center
Thu 05:01:44 PM 29.5736 -95.9372 82° East 576 663 39,000 48 Climbing Houston Center
Thu 05:02:46 PM 29.5961 -95.7542 82° East 580 667 39,000  Level Houston Center
Thu 05:03:48 PM 29.6192 -95.5708 82° East 579 666 39,000  Level Houston Center
Thu 05:04:50 PM 29.6428 -95.3869 82° East 581 669 39,000  Level Houston Center
Thu 05:05:53 PM 29.6781 -95.1633 80° East 593 682 39,000  Level Houston Center
Thu 05:06:55 PM 29.7178 -95.0067 74° East 585 673 39,000  Level Houston Center
Thu 05:07:57 PM 29.7681 -94.7908 75° East 581 669 39,000  Level Houston Center
Thu 05:08:59 PM 29.8092 -94.6117 75° East 580 667 39,000  Level Houston Center
Thu 05:10:01 PM 29.8492 -94.4339 75° East 577 664 39,000  Level Houston Center
Thu 05:11:03 PM 29.8878 -94.2550 76° East 576 663 39,000  Level Houston Center
Thu 05:12:05 PM 29.9322 -94.0603 75° East 573 659 39,000  Level Houston Center
Thu 05:13:07 PM 29.9719 -93.8833 75° East 572 658 39,000  Level Houston Center
Thu 05:14:10 PM 30.0103 -93.7081 76° East 570 656 39,000  Level Houston Center
Thu 05:15:12 PM 30.0478 -93.5322 76° East 571 657 39,000  Level Houston Center
Thu 05:16:14 PM 30.0933 -93.3208 76° East 576 663 39,000  Level Houston Center
Thu 05:17:16 PM 30.1319 -93.1431 76° East 579 666 39,000  Level Houston Center
Thu 05:18:18 PM 30.1683 -92.9658 77° East 575 662 39,000  Level Houston Center
Thu 05:19:20 PM 30.2025 -92.7892 77° East 568 654 39,000  Level Houston Center
Thu 05:20:22 PM 30.2442 -92.5756 77° East 571 657 39,000  Level Houston Center
Thu 05:21:24 PM 30.2778 -92.3997 77° East 565 650 39,000  Level Houston Center
Thu 05:22:26 PM 30.3131 -92.2136 78° East 567 652 39,000  Level Houston Center
Thu 05:23:29 PM 30.3469 -92.0394 77° East 562 647 39,000  Level Houston Center
Thu 05:24:31 PM 30.3797 -91.8653 78° East 557 641 39,000  Level Houston Center
Thu 05:25:33 PM 30.4144 -91.6747 78° East 555 639 39,000  Level Houston Center
Thu 05:26:35 PM 30.4475 -91.5014 77° East 554 638 39,000  Level Houston Center
Thu 05:27:37 PM 30.4797 -91.3294 78° East 547 629 39,000  Level Houston Center
Thu 05:28:39 PM 30.5164 -91.1600 76° East 543 625 39,000  Level Houston Center
Thu 05:29:41 PM 30.5539 -90.9911 76° East 541 623 39,000  Level Houston Center
Thu 05:30:43 PM 30.6006 -90.7906 75° East 538 619 39,000  Level Houston Center
Thu 05:31:45 PM 30.6383 -90.6233 75° East 535 616 39,000  Level Houston Center
Thu 05:32:48 PM 30.6756 -90.4569 75° East 532 612 39,000  Level Houston Center
Thu 05:33:50 PM 30.7131 -90.2894 75° East 532 612 39,000  Level Houston Center
Thu 05:34:53 PM 30.7492 -90.1236 76° East 528 608 39,000  Level Houston Center
Thu 05:35:54 PM 30.7861 -89.9553 76° East 531 611 39,000  Level Houston Center
Thu 05:36:56 PM 30.8222 -89.7892 76° East 528 608 39,000  Level Houston Center
Thu 05:37:58 PM 30.8717 -89.5936 74° East 524 603 39,000  Level Houston Center
Thu 05:39:00 PM 30.9311 -89.4425 65° Northeast 513 590 39,000  Level Houston Center
Thu 05:40:02 PM 30.9867 -89.2889 67° East 514 592 39,000  Level Houston Center
Thu 05:41:04 PM 31.0383 -89.1331 69° East 514 592 39,000  Level Houston Center
Thu 05:42:07 PM 31.0897 -88.9783 69° East 512 589 39,000  Level Houston Center
Thu 05:43:09 PM 31.1464 -88.8128 68° East 506 582 39,000  Level Houston Center
Thu 05:44:11 PM 31.1989 -88.6606 68° East 503 579 39,000  Level Houston Center
Thu 05:45:13 PM 31.2508 -88.5092 68° East 499 574 39,000  Level Houston Center
Thu 05:46:15 PM 31.3042 -88.3586 67° East 497 572 39,000  Level Houston Center
Thu 05:47:10 PM 31.3636 -88.2019 66° East 488 562 39,000  Level Atlanta Center
Thu 05:48:10 PM 31.4144 -88.0511 68° East 476 548 39,000  Level Atlanta Center
Thu 05:49:10 PM 31.4772 -87.9125 62° Northeast 476 548 39,000  Level Atlanta Center
Thu 05:50:10 PM 31.5542 -87.7844 55° Northeast 471 542 39,000  Level Atlanta Center
Thu 05:51:10 PM 31.6289 -87.6558 56° Northeast 471 542 39,000 -300 Level Atlanta Center
Thu 05:52:10 PM 31.7056 -87.5294 54° Northeast 476 548 38,400 -1,450 Descending Atlanta Center
Thu 05:53:10 PM 31.7800 -87.4078 54° Northeast 470 541 36,100 -2,500 Descending Atlanta Center
Thu 05:54:10 PM 31.8458 -87.2928 56° Northeast 465 535 33,400 -1,750 Descending Atlanta Center
Thu 05:55:10 PM 31.9200 -87.1633 56° Northeast 465 535 32,600 -850 Descending Atlanta Center
Thu 05:56:10 PM 32.0006 -87.0292 55° Northeast 477 549 31,700 -1,050 Descending Atlanta Center
Thu 05:57:10 PM 32.0767 -86.8969 56° Northeast 489 563 30,500 -900 Descending Atlanta Center
Thu 05:58:10 PM 32.1592 -86.7597 55° Northeast 499 574 29,900 -500 Descending Atlanta Center
Thu 05:59:10 PM 32.2519 -86.6150 53° Northeast 499 574 29,500 -450 Descending Atlanta Center
Thu 06:00:10 PM 32.3300 -86.4772 56° Northeast 499 574 29,000 -550 Descending Atlanta Center
Thu 06:01:10 PM 32.3928 -86.3536 59° Northeast 499 574 28,400 -750 Descending Atlanta Center
Thu 06:02:10 PM 32.4803 -86.2475 46° Northeast 479 551 27,500 -950 Descending Atlanta Center
Thu 06:03:10 PM 32.5908 -86.1344 41° Northeast 467 537 26,500 -900 Descending Atlanta Center
Thu 06:04:10 PM 32.6578 -86.0028 59° Northeast 467 537 25,700 -850 Descending Atlanta Center
Thu 06:05:10 PM 32.7203 -85.8733 60° Northeast 456 525 24,800 -750 Descending Atlanta Center
Thu 06:06:10 PM 32.7847 -85.7461 59° Northeast 451 519 24,200 -700 Descending Atlanta Center
Thu 06:07:10 PM 32.8450 -85.6164 61° Northeast 439 505 23,400 -750 Descending Atlanta Center
Thu 06:08:10 PM 32.9089 -85.4936 58° Northeast 439 505 22,700 -700 Descending Atlanta Center
Thu 06:09:10 PM 32.9689 -85.3708 60° Northeast 434 499 22,000 -1,550 Descending Atlanta Center
Thu 06:10:10 PM 33.0264 -85.2528 60° Northeast 427 491 19,600 -2,450 Descending Atlanta Center
Thu 06:11:10 PM 33.0919 -85.1522 52° Northeast 403 464 17,100 -2,450 Descending Atlanta Center
Thu 06:12:10 PM 33.1639 -85.0561 48° Northeast 384 442 14,700 -1,650 Descending Atlanta Center
Thu 06:13:10 PM 33.2333 -84.9653 48° Northeast 370 426 13,800 -1,200 Descending Atlanta Center
Thu 06:14:10 PM 33.3031 -84.8739 48° Northeast 365 420 12,300 -900 Descending Atlanta Center
Thu 06:15:10 PM 33.3683 -84.7850 49° Northeast 365 420 12,000 -189 Descending Atlanta Center
Thu 06:15:45 PM 33.4167 -84.7167 50° Northeast 365 420 12,000  Level Atlanta TRACON
Thu 06:16:45 PM 33.4833 -84.6333 46° Northeast 353 406 12,000  Level Atlanta TRACON
Thu 06:17:45 PM 33.5333 -84.5500 54° Northeast 283 326 12,000 -474 Level Atlanta TRACON
Thu 06:18:39 PM 33.5333 -84.4833 90° East 268 308 11,100 -1,579 Descending Atlanta TRACON
Thu 06:19:39 PM 33.5500 -84.3833 79° East 261 300 9,000 -1,950 Descending Atlanta TRACON
Thu 06:20:39 PM 33.5500 -84.3167 90° East 236 272 7,200 -1,934 Descending Atlanta TRACON
Thu 06:21:40 PM 33.5500 -84.2333 90° East 236 272 5,100 -1,937 Descending Atlanta TRACON
Thu 06:22:46 PM 33.6167 -84.2167 12° North 225 259 3,100 -1,160 Descending Atlanta TRACON
Thu 06:23:39 PM 33.6333 -84.2833 287° West 206 237 2,800 -478 Descending Atlanta TRACON
Thu 06:24:39 PM 33.6333 -84.3500 270° West 166 191 2,200 -645 Descending Atlanta TRACON
Thu 06:25:40 PM 33.6333 -84.3833 270° West 120 138 1,500 -689 Descending Atlanta TRACON
Thu 06:27:00 PM 33.6333 -84.4167 301° West  Level FlightAware Approximate
Thu 06:34:00 PM 33.6367 -84.4279 301° West  Level Estimated
Thu 06:35:00 PM 33.6367 -84.4279 301° West  Level Estimated

Login

Don't have an account? Register now (free) for customized features, flight alerts, and more!